Time;durP1;ratioP1;P1;durP2;ratioP2;P2;SDS_P1;SDS_P2;PMS_P1;PMS_P2;Temp;Humidity;BMP_temperature;BMP_pressure;BME280_temperature;BME280_humidity;BME280_pressure;Samples;Min_cycle;Max_cycle;Signal;HPM_P1;HPM_P2
2022/12/06 00:01:12;;;;;;;8.20;3.15;;;;;;;-7.71;51.28;101864.88;4753535;30;20044;-83
2022/12/06 00:03:39;;;;;;;7.07;2.95;;;;;;;-7.83;51.65;101836.75;4766952;30;20106;-80
2022/12/06 00:06:08;;;;;;;7.53;3.28;;;;;;;-7.85;51.66;101832.31;4737732;30;20084;-83
2022/12/06 00:08:36;;;;;;;8.32;2.63;;;;;;;-7.72;51.42;101873.19;4753461;30;20051;-83
2022/12/06 00:11:08;;;;;;;7.00;3.00;;;;;;;-7.98;51.61;101823.50;4769464;30;20064;-82
2022/12/06 00:13:36;;;;;;;8.02;3.15;;;;;;;-7.64;51.47;101882.44;4769241;30;20047;-79
2022/12/06 00:16:04;;;;;;;7.68;2.97;;;;;;;-7.74;51.42;101844.34;4784012;30;20126;-82
2022/12/06 00:18:32;;;;;;;8.15;3.03;;;;;;;-7.60;51.08;101881.97;4754336;30;20838;-82
2022/12/06 00:21:12;;;;;;;9.32;3.50;;;;;;;-7.83;51.43;101831.69;4754538;30;20047;-80
2022/12/06 00:23:42;;;;;;;6.53;3.15;;;;;;;-8.06;51.92;101800.00;4784407;29;20043;-81
2022/12/06 00:26:09;;;;;;;5.85;2.92;;;;;;;-7.88;51.69;101800.91;4770392;30;20363;-81
2022/12/06 00:28:36;;;;;;;7.70;2.95;;;;;;;-7.39;51.60;101869.63;4770104;29;20134;-82
2022/12/06 00:31:06;;;;;;;7.82;3.15;;;;;;;-7.50;51.46;101850.00;4768971;30;20055;-81
2022/12/06 00:33:34;;;;;;;8.77;2.92;;;;;;;-7.51;51.31;101828.88;4769488;30;20058;-82
2022/12/06 00:36:03;;;;;;;9.60;3.78;;;;;;;-7.29;51.69;101858.78;4774399;30;20043;-82
2022/12/06 00:38:30;;;;;;;9.43;3.42;;;;;;;-7.21;51.84;101855.31;4773140;30;20154;-80
2022/12/06 00:41:16;;;;;;;7.50;3.40;;;;;;;-7.16;51.59;101853.22;4785746;30;20047;-79
2022/12/06 00:43:43;;;;;;;6.50;3.13;;;;;;;-7.07;51.30;101860.81;4771608;30;20044;-82
2022/12/06 00:46:14;;;;;;;9.48;4.00;;;;;;;-7.12;51.37;101861.28;4778405;30;20403;-81
2022/12/06 00:48:40;;;;;;;7.50;2.92;;;;;;;-8.20;51.30;101667.28;4777936;30;20085;-81
2022/12/06 00:51:06;;;;;;;7.82;3.47;;;;;;;-7.11;51.03;101854.56;4778901;30;20468;-82
2022/12/06 00:53:35;;;;;;;6.22;2.97;;;;;;;-7.23;51.36;101823.91;4788158;30;20054;-81
2022/12/06 00:56:01;;;;;;;5.93;2.90;;;;;;;-7.82;51.34;101728.91;4770294;30;20036;-79
2022/12/06 00:58:27;;;;;;;8.13;3.13;;;;;;;-7.53;51.32;101800.03;4756513;30;20043;-79
2022/12/06 01:00:53;;;;;;;5.88;2.97;;;;;;;-7.53;51.17;101791.53;4772343;30;20073;-81
2022/12/06 01:03:20;;;;;;;8.60;3.28;;;;;;;-8.58;51.05;101600.44;4773307;30;20051;-82
2022/12/06 01:05:49;;;;;;;11.10;4.00;;;;;;;-7.23;51.11;101836.56;4772956;30;20179;-80
2022/12/06 01:08:17;;;;;;;8.20;2.90;;;;;;;-8.78;51.24;101564.97;4788519;30;20413;-80
2022/12/06 01:10:53;;;;;;;6.20;2.97;;;;;;;-7.41;51.33;101807.88;4767125;30;20510;-81
2022/12/06 01:13:20;;;;;;;8.82;2.97;;;;;;;-7.33;51.24;101836.44;4746647;30;20047;-81
2022/12/06 01:15:46;;;;;;;6.50;3.30;;;;;;;-7.99;50.91;101723.16;4756885;30;20138;-81
2022/12/06 01:18:12;;;;;;;10.25;3.50;;;;;;;-7.37;51.12;101835.25;4742879;30;20051;-81
2022/12/06 01:20:38;;;;;;;7.45;3.83;;;;;;;-7.76;51.51;101752.28;4757459;30;20056;-82
2022/12/06 01:23:05;;;;;;;9.98;3.72;;;;;;;-7.76;51.39;101747.22;4757450;30;20048;-83
2022/12/06 01:25:31;;;;;;;7.50;3.35;;;;;;;-8.49;51.18;101622.44;4743109;30;20047;-81
2022/12/06 01:27:59;;;;;;;7.85;2.92;;;;;;;-8.38;51.18;101632.66;4742563;30;20044;-82
2022/12/06 01:30:25;;;;;;;12.32;3.35;;;;;;;-7.25;50.98;101830.47;4742136;30;20043;-81
2022/12/06 01:32:51;;;;;;;5.32;3.15;;;;;;;-7.50;51.28;101787.63;4773499;30;20048;-82
2022/12/06 01:35:17;;;;;;;6.47;3.17;;;;;;;-7.29;50.92;101824.22;4757185;30;20047;-80
2022/12/06 01:37:43;;;;;;;8.90;3.40;;;;;;;-7.64;50.95;101768.63;4772611;30;20047;-81
2022/12/06 01:40:10;;;;;;;11.27;3.80;;;;;;;-7.39;50.89;101854.44;4757890;30;20055;-83
2022/12/06 01:42:37;;;;;;;5.40;3.28;;;;;;;-7.35;51.20;101826.16;4741953;30;20040;-80
2022/12/06 01:45:04;;;;;;;10.27;3.38;;;;;;;-7.45;51.47;101810.88;4767472;30;20042;-81
2022/12/06 01:47:42;;;;;;;6.40;2.97;;;;;;;-7.37;51.00;101816.66;4760761;30;20069;-78
2022/12/06 01:50:24;;;;;;;6.03;3.05;;;;;;;-7.34;51.04;101796.72;4760497;30;20054;-81
2022/12/06 01:53:04;;;;;;;11.15;3.45;;;;;;;-7.24;51.18;101806.06;4771265;30;20101;-81
2022/12/06 01:55:36;;;;;;;6.78;3.28;;;;;;;-8.12;51.30;101642.72;4766852;30;20051;-80
2022/12/06 01:58:10;;;;;;;7.47;3.20;;;;;;;-7.21;50.57;101806.34;4762828;30;20094;-81
2022/12/06 02:00:36;;;;;;;6.53;3.30;;;;;;;-7.31;51.10;101813.06;4787467;30;20051;-80
2022/12/06 02:03:06;;;;;;;7.20;3.22;;;;;;;-7.71;50.91;101743.50;4774529;30;20028;-80
2022/12/06 02:05:35;;;;;;;10.63;3.70;;;;;;;-7.48;50.82;101783.63;4749855;30;20054;-82
2022/12/06 02:08:03;;;;;;;7.90;3.30;;;;;;;-7.33;51.02;101809.50;4772861;30;20066;-82
2022/12/06 02:10:30;;;;;;;6.95;3.25;;;;;;;-7.30;51.28;101804.72;4751169;30;20434;-82
2022/12/06 02:12:58;;;;;;;7.90;3.57;;;;;;;-7.39;51.37;101778.53;4756482;30;20530;-83
2022/12/06 02:16:16;;;;;;;9.10;3.78;;;;;;;-7.39;51.25;101773.47;4770925;30;20059;-83
2022/12/06 02:19:04;;;;;;;8.40;3.70;;;;;;;-7.28;51.29;101779.59;4755714;30;20083;-80
2022/12/06 02:22:17;;;;;;;7.10;3.13;;;;;;;-7.54;51.11;101722.34;4770807;29;20471;-82
2022/12/06 02:24:55;;;;;;;10.00;4.13;;;;;;;-7.21;51.53;101781.06;4756049;30;20055;-82
2022/12/06 02:27:50;;;;;;;6.43;2.75;;;;;;;-7.25;51.17;101774.78;4774232;30;20541;-82
2022/12/06 02:30:39;;;;;;;8.82;3.30;;;;;;;-7.19;51.32;101782.09;4775242;30;20119;-80
2022/12/06 02:33:15;;;;;;;7.68;3.10;;;;;;;-7.34;50.98;101784.06;4775035;30;20048;-80
2022/12/06 02:35:56;;;;;;;7.03;2.88;;;;;;;-7.39;51.26;101773.47;4774210;30;20132;-80
2022/12/06 02:39:10;;;;;;;7.72;3.55;;;;;;;-7.44;51.30;101762.06;4755405;30;20543;-81
2022/12/06 02:41:48;;;;;;;10.25;3.20;;;;;;;-7.31;51.75;101775.09;4750857;30;20109;-81
2022/12/06 02:44:39;;;;;;;8.00;3.05;;;;;;;-7.36;50.81;101773.78;4754255;30;20051;-81
2022/12/06 02:47:10;;;;;;;6.95;2.65;;;;;;;-7.82;51.02;101701.13;4754735;30;20051;-82
2022/12/06 02:49:43;;;;;;;7.05;2.83;;;;;;;-7.67;51.67;101742.16;4754603;30;20040;-82
2022/12/06 02:52:12;;;;;;;7.35;3.22;;;;;;;-7.51;50.92;101764.75;4754915;30;20070;-79
2022/12/06 02:54:40;;;;;;;7.03;3.17;;;;;;;-7.47;51.39;101746.59;4769462;30;20578;-81
2022/12/06 02:57:06;;;;;;;7.30;3.08;;;;;;;-7.59;51.15;101729.47;4784033;30;20051;-81
2022/12/06 02:59:32;;;;;;;7.95;3.70;;;;;;;-7.53;51.56;101738.41;4754328;30;20050;-81
2022/12/06 03:02:01;;;;;;;9.43;3.47;;;;;;;-7.44;51.37;101755.34;4770390;30;20086;-82
2022/12/06 03:04:49;;;;;;;7.85;3.53;;;;;;;-7.29;51.64;101775.28;4776820;30;20047;-83
2022/12/06 03:07:46;;;;;;;9.00;3.92;;;;;;;-7.31;51.39;101754.00;4770506;30;20047;-81
2022/12/06 03:10:27;;;;;;;9.57;3.15;;;;;;;-7.14;51.44;101770.75;4744573;30;20525;-80
2022/12/06 03:12:55;;;;;;;10.40;3.50;;;;;;;-7.39;51.39;101724.53;4766569;30;20506;-82
2022/12/06 03:15:43;;;;;;;6.30;3.38;;;;;;;-7.14;51.61;101764.06;4736136;30;20071;-82
2022/12/06 03:18:49;;;;;;;5.75;3.00;;;;;;;-7.33;51.30;101743.72;4737975;30;20048;-82
2022/12/06 03:21:50;;;;;;;6.78;2.95;;;;;;;-7.42;51.00;101740.34;4750234;30;20068;-81
2022/12/06 03:24:19;;;;;;;7.88;3.28;;;;;;;-7.40;50.83;101769.19;4765793;30;20126;-80
2022/12/06 03:26:47;;;;;;;9.07;3.22;;;;;;;-7.41;51.30;101772.47;4752036;30;20426;-81
2022/12/06 03:29:17;;;;;;;8.02;3.10;;;;;;;-7.49;50.63;101759.06;4751353;30;20048;-83
2022/12/06 03:31:45;;;;;;;6.70;3.38;;;;;;;-7.68;51.08;101756.44;4736158;30;20040;-79
2022/12/06 03:34:20;;;;;;;6.93;3.25;;;;;;;-7.89;51.34;101712.28;4752382;30;20136;-83
2022/12/06 03:36:49;;;;;;;8.15;3.30;;;;;;;-7.52;51.66;101756.28;4750507;30;20052;-84
2022/12/06 03:39:40;;;;;;;9.75;3.80;;;;;;;-7.53;51.00;101756.13;4752505;30;20076;-84
2022/12/06 03:42:07;;;;;;;7.03;3.50;;;;;;;-7.69;51.76;101734.44;4722501;30;20506;-82
2022/12/06 03:44:34;;;;;;;8.73;3.33;;;;;;;-7.56;51.24;101734.84;4735957;30;20056;-80
2022/12/06 03:47:10;;;;;;;6.85;3.33;;;;;;;-7.60;51.19;101724.28;4752106;30;20425;-79
2022/12/06 03:50:00;;;;;;;9.10;3.35;;;;;;;-7.84;51.36;101702.63;4751726;30;20130;-79
2022/12/06 03:52:28;;;;;;;5.95;2.95;;;;;;;-7.63;51.23;101735.03;4751797;30;20048;-82
2022/12/06 03:54:54;;;;;;;7.55;3.00;;;;;;;-7.95;51.56;101678.84;4721527;30;20047;-80
2022/12/06 03:57:20;;;;;;;7.03;3.08;;;;;;;-7.71;51.21;101740.97;4722301;30;20040;-82
2022/12/06 03:59:47;;;;;;;6.97;3.35;;;;;;;-7.94;51.61;101703.38;4737364;30;20072;-82
2022/12/06 04:02:13;;;;;;;8.25;3.50;;;;;;;-7.95;51.86;101712.59;4736767;30;20047;-81
2022/12/06 04:04:40;;;;;;;9.23;3.40;;;;;;;-7.96;51.76;101713.34;4752239;30;20040;-80
2022/12/06 04:07:08;;;;;;;7.53;4.23;;;;;;;-8.21;51.33;101689.88;4736092;30;20066;-80
2022/12/06 04:09:51;;;;;;;8.93;3.75;;;;;;;-8.67;51.76;101615.59;4748052;30;20047;-79
2022/12/06 04:13:18;;;;;;;9.63;3.40;;;;;;;-8.43;52.01;101657.47;4775122;30;20063;-82
2022/12/06 04:15:13;;;;;;;8.27;3.03;;;;;;;-8.74;51.90;101608.19;4758879;30;20078;-81
2022/12/06 04:20:27;;;;;;;8.70;3.30;;;;;;;-8.56;52.18;101634.31;4772843;29;20078;-80
2022/12/06 04:23:03;;;;;;;9.40;4.00;;;;;;;-8.12;51.90;101710.97;4800018;30;20040;-81
2022/12/06 04:25:45;;;;;;;6.60;3.23;;;;;;;-8.05;52.04;101712.44;4780050;30;20052;-80
2022/12/06 04:39:14;;;;;;;8.70;3.07;;;;;;;-8.42;51.96;101687.03;4762701;30;20203;-79
2022/12/06 04:44:25;;;;;;;7.73;3.30;;;;;;;-8.68;52.11;101671.88;4769352;30;20107;-82
2022/12/06 04:46:53;;;;;;;7.60;3.23;;;;;;;-8.45;51.95;101701.00;4781100;30;20149;-83
2022/12/06 04:49:19;;;;;;;9.93;3.83;;;;;;;-8.64;52.06;101676.50;4781187;30;20063;-82
2022/12/06 04:51:45;;;;;;;7.57;3.23;;;;;;;-8.50;52.24;101710.69;4790661;30;20112;-80
2022/12/06 04:54:11;;;;;;;9.93;3.47;;;;;;;-8.55;51.68;101706.81;4793777;30;20043;-81
2022/12/06 04:56:40;;;;;;;8.13;3.20;;;;;;;-8.84;51.94;101669.50;4778662;30;20097;-82
2022/12/06 04:59:06;;;;;;;7.83;3.27;;;;;;;-8.55;52.12;101706.81;4808321;30;20051;-81
2022/12/06 05:01:32;;;;;;;6.07;3.33;;;;;;;-8.78;52.36;101676.03;4778172;30;20091;-81
2022/12/06 05:03:58;;;;;;;9.80;3.60;;;;;;;-8.82;52.47;101662.94;4777842;30;20044;-82
2022/12/06 05:06:25;;;;;;;12.77;3.20;;;;;;;-8.71;51.82;101680.06;4779019;30;20099;-80
2022/12/06 05:08:51;;;;;;;9.10;3.17;;;;;;;-8.91;51.72;101682.25;4773568;29;20073;-81
2022/12/06 05:11:17;;;;;;;6.23;3.07;;;;;;;-8.68;52.38;101710.66;4773150;30;20078;-82
2022/12/06 05:13:43;;;;;;;6.40;2.77;;;;;;;-9.08;52.43;101648.66;4774654;30;20039;-82
2022/12/06 05:16:11;;;;;;;8.43;3.40;;;;;;;-8.74;52.54;101711.69;4743013;30;20097;-81
2022/12/06 05:18:37;;;;;;;6.90;3.53;;;;;;;-9.14;52.70;101646.41;4756813;30;20083;-81
2022/12/06 05:21:21;;;;;;;8.30;3.40;;;;;;;-9.01;52.59;101677.91;4758043;30;20126;-81
2022/12/06 05:23:48;;;;;;;9.00;3.27;;;;;;;-8.98;52.80;101680.75;4758217;30;20047;-81
2022/12/06 05:26:19;;;;;;;8.30;3.47;;;;;;;-8.90;52.66;101716.84;4757648;30;20503;-82
2022/12/06 05:28:46;;;;;;;5.60;2.90;;;;;;;-9.10;52.71;101673.72;4757963;30;20058;-82
2022/12/06 05:31:13;;;;;;;8.53;3.40;;;;;;;-9.00;52.84;101685.63;4751223;30;20073;-83
2022/12/06 05:33:39;;;;;;;6.53;3.33;;;;;;;-9.23;52.80;101637.94;4757016;30;20090;-82
2022/12/06 05:36:14;;;;;;;6.53;3.10;;;;;;;-9.03;52.30;101670.16;4756866;30;20052;-82
2022/12/06 05:38:40;;;;;;;6.07;2.80;;;;;;;-9.05;52.06;101679.25;4741403;30;20375;-84
2022/12/06 05:41:08;;;;;;;5.30;2.53;;;;;;;-8.98;52.82;101688.31;4742964;30;20066;-83
2022/12/06 05:43:34;;;;;;;9.33;3.40;;;;;;;-10.02;52.16;101499.88;4757008;30;20051;-82
2022/12/06 05:46:00;;;;;;;7.10;3.23;;;;;;;-9.19;52.71;101642.56;4727186;30;20043;-82
2022/12/06 05:48:27;;;;;;;6.13;3.00;;;;;;;-8.90;52.26;101689.94;4741944;30;20422;-82
2022/12/06 05:50:55;;;;;;;11.53;3.67;;;;;;;-8.74;52.74;101714.22;4756995;30;20086;-82
2022/12/06 05:53:22;;;;;;;14.03;3.60;;;;;;;-9.34;53.20;101561.19;4741065;30;20594;-81
2022/12/06 05:55:48;;;;;;;7.50;3.20;;;;;;;-9.04;52.63;101607.84;4755785;30;20047;-82
2022/12/06 05:58:17;;;;;;;6.87;3.10;;;;;;;-8.58;52.79;101684.69;4771707;30;20560;-82
2022/12/06 06:00:50;;;;;;;8.10;2.90;;;;;;;-8.59;52.67;101684.50;4772951;30;20058;-83
2022/12/06 06:03:17;;;;;;;6.87;3.00;;;;;;;-8.93;52.47;101616.47;4743870;30;20404;-80
2022/12/06 06:05:49;;;;;;;5.47;3.00;;;;;;;-9.31;52.71;101525.28;4758502;30;20044;-80
2022/12/06 06:08:16;;;;;;;6.20;3.37;;;;;;;-9.52;52.71;101482.09;4741219;30;20039;-82
2022/12/06 06:10:45;;;;;;;6.67;3.70;;;;;;;-9.51;52.11;101470.41;4753092;30;20826;-80
2022/12/06 06:13:12;;;;;;;7.43;3.07;;;;;;;-9.59;52.80;101468.00;4770274;30;20059;-81
2022/12/06 06:15:39;;;;;;;6.73;3.53;;;;;;;-8.07;52.63;101684.50;4771592;30;20157;-81
2022/12/06 06:18:05;;;;;;;7.77;3.07;;;;;;;-8.45;52.33;101590.78;4771591;30;20047;-83
2022/12/06 06:20:31;;;;;;;7.43;3.40;;;;;;;-7.99;52.25;101674.25;4769830;30;20578;-81
2022/12/06 06:23:10;;;;;;;7.80;3.50;;;;;;;-8.27;52.41;101632.03;4771164;29;20039;-81
2022/12/06 06:26:12;;;;;;;6.47;2.73;;;;;;;-9.01;52.00;101488.69;4771394;30;20058;-82
2022/12/06 06:28:39;;;;;;;8.17;3.60;;;;;;;-8.20;52.25;101614.22;4771864;30;20067;-85
2022/12/06 06:31:07;;;;;;;4.90;2.75;;;;;;;-7.98;51.84;101643.19;4772808;30;20097;-80
2022/12/06 06:33:35;;;;;;;8.18;3.65;;;;;;;-7.73;51.89;101622.00;4773765;30;20071;-81
2022/12/06 06:36:12;;;;;;;8.55;3.55;;;;;;;-8.07;51.20;101529.47;4768726;30;20044;-83
2022/12/06 06:38:42;;;;;;;7.75;2.88;;;;;;;-8.65;51.14;101391.97;4771203;30;20146;-85
2022/12/06 06:41:21;;;;;;;6.35;3.10;;;;;;;-7.67;51.13;101492.72;4755329;30;20043;-84
2022/12/06 06:43:53;;;;;;;6.82;3.22;;;;;;;-7.72;51.20;101398.72;4757347;30;20049;-80
2022/12/06 06:46:32;;;;;;;;;;;;;;;;;;;;;
2022/12/06 06:49:08;;;;;;;6.72;3.20;;;;;;;-5.38;49.66;101389.75;4768846;30;20047;-84
2022/12/06 06:51:36;;;;;;;8.20;3.15;;;;;;;-3.06;49.22;101648.41;4781081;30;20071;-83
2022/12/06 06:54:07;;;;;;;7.25;3.53;;;;;;;-3.52;48.61;101377.59;4767009;30;20056;-84
2022/12/06 06:56:33;;;;;;;6.18;2.92;;;;;;;-1.09;47.64;101602.78;4771365;30;20047;-85
2022/12/06 06:59:03;;;;;;;5.93;2.95;;;;;;;-0.87;45.79;101455.94;4741977;30;20105;-84
2022/12/06 07:01:30;;;;;;;7.78;3.58;;;;;;;0.25;44.88;101531.13;4754933;30;20480;-83
2022/12/06 07:04:03;;;;;;;6.78;3.90;;;;;;;-0.42;43.23;101492.91;4760431;30;20056;-83
2022/12/06 07:06:29;;;;;;;5.55;3.38;;;;;;;-0.41;42.86;101596.09;4773654;30;20079;-83
2022/12/06 07:08:56;;;;;;;6.55;3.58;;;;;;;-1.32;42.53;101598.69;4757838;30;20493;-82
2022/12/06 07:11:25;;;;;;;8.55;3.83;;;;;;;-1.76;43.00;101656.94;4774532;30;20052;-85
2022/12/06 07:13:54;;;;;;;8.52;3.80;;;;;;;-2.74;42.97;101550.53;4773542;30;20054;-83
2022/12/06 07:16:20;;;;;;;7.03;3.90;;;;;;;-2.85;43.63;101632.06;4741824;30;20101;-84
2022/12/06 07:18:47;;;;;;;8.20;4.10;;;;;;;-4.31;43.63;101374.31;4769726;30;20081;-84
2022/12/06 07:21:17;;;;;;;8.60;3.58;;;;;;;-3.48;43.99;101333.78;4756394;30;20131;-87
2022/12/06 07:23:43;;;;;;;6.57;3.45;;;;;;;-2.35;43.18;101402.84;4741134;30;20407;-83
2022/12/06 07:26:18;;;;;;;6.05;3.60;;;;;;;-0.91;42.64;101485.53;4771555;30;20130;-84
2022/12/06 07:28:56;;;;;;;7.90;4.10;;;;;;;-0.72;42.14;101538.72;4759354;30;20056;-85
2022/12/06 07:36:55;;;;;;;7.82;3.80;;;;;;;-1.59;41.89;101655.59;4762072;30;20079;-83
2022/12/06 07:39:21;;;;;;;6.30;3.33;;;;;;;-1.76;42.15;101646.75;4721186;30;20499;-84
2022/12/06 07:47:31;;;;;;;7.78;3.92;;;;;;;-1.59;41.59;101653.03;4737253;30;20096;-86
2022/12/06 07:49:58;;;;;;;6.53;3.60;;;;;;;-0.79;41.79;101605.63;4722112;30;20044;-84
2022/12/06 07:52:24;;;;;;;7.18;3.55;;;;;;;0.10;41.70;101536.19;4751197;30;20078;-82
2022/12/06 07:54:52;;;;;;;7.47;3.60;;;;;;;1.79;39.76;101578.38;4769014;30;20064;-84
2022/12/06 07:57:20;;;;;;;6.90;3.63;;;;;;;2.70;39.19;101616.66;4772745;30;20070;-83
2022/12/06 07:59:46;;;;;;;6.68;3.90;;;;;;;4.09;38.03;101613.97;4757591;30;20092;-84
2022/12/06 08:02:18;;;;;;;7.07;4.22;;;;;;;5.23;36.99;101599.19;4761381;30;20215;-84
2022/12/06 08:04:44;;;;;;;6.78;3.60;;;;;;;5.70;35.59;101571.81;4774044;30;20111;-81
2022/12/06 08:07:12;;;;;;;9.70;3.55;;;;;;;5.12;34.56;101584.16;4772044;30;20051;-81
2022/12/06 08:09:39;;;;;;;4.88;3.55;;;;;;;3.84;34.67;101607.69;4772593;30;20119;-79
2022/12/06 08:12:07;;;;;;;7.68;3.78;;;;;;;3.12;35.03;101612.75;4774301;30;20059;-82
2022/12/06 08:14:37;;;;;;;7.28;3.58;;;;;;;2.33;35.35;101567.56;4775050;30;20052;-81
2022/12/06 08:17:04;;;;;;;6.60;3.83;;;;;;;1.99;35.32;101571.78;4774640;30;20111;-81
2022/12/06 08:19:31;;;;;;;6.70;3.78;;;;;;;1.77;35.71;101567.13;4773977;30;20047;-83
2022/12/06 08:21:58;;;;;;;7.32;3.78;;;;;;;1.55;34.70;101537.72;4772194;30;20154;-85
2022/12/06 08:24:24;;;;;;;7.18;3.50;;;;;;;2.01;35.28;101579.56;4758361;30;20058;-81
2022/12/06 08:26:51;;;;;;;6.65;3.85;;;;;;;2.83;35.20;101584.75;4744726;30;20056;-82
2022/12/06 08:29:18;;;;;;;7.43;3.85;;;;;;;4.33;34.29;101573.00;4729752;30;20128;-82
2022/12/06 08:31:46;;;;;;;7.65;3.50;;;;;;;5.47;34.09;101551.94;4780044;30;20075;-83
2022/12/06 08:34:16;;;;;;;6.15;3.63;;;;;;;6.96;32.68;101500.47;4756505;30;20048;-81
2022/12/06 08:36:42;;;;;;;7.38;4.20;;;;;;;8.49;31.53;101544.00;4770458;30;20185;-82
2022/12/06 08:39:11;;;;;;;7.60;3.42;;;;;;;9.11;30.50;101505.78;4741142;30;20149;-83
2022/12/06 08:44:35;;;;;;;9.23;4.07;;;;;;;11.05;28.81;101505.41;4739406;30;20051;-80
2022/12/06 08:47:24;;;;;;;6.63;3.50;;;;;;;10.49;27.50;101376.88;4753213;30;20056;-82
2022/12/06 08:49:57;;;;;;;6.50;3.67;;;;;;;11.35;28.00;101530.19;4767275;30;20048;-85
2022/12/06 08:52:24;;;;;;;5.80;3.42;;;;;;;11.63;27.26;101452.38;4780409;29;20059;-85
2022/12/06 09:03:35;;;;;;;7.70;3.90;;;;;;;10.44;25.30;101279.66;4768422;30;20048;-84
2022/12/06 09:06:05;;;;;;;5.75;3.90;;;;;;;10.04;25.06;101297.22;4768197;30;20048;-81
2022/12/06 09:08:32;;;;;;;6.18;3.47;;;;;;;10.19;25.59;101406.72;4754261;30;20058;-81
2022/12/06 09:10:58;;;;;;;7.35;3.92;;;;;;;10.94;25.28;101345.44;4771101;30;20055;-82
2022/12/06 09:13:24;;;;;;;8.68;4.40;;;;;;;11.82;23.44;101390.00;4774606;30;20064;-80
2022/12/06 09:15:51;;;;;;;8.75;4.20;;;;;;;12.15;22.70;101438.25;4746516;30;20117;-84
2022/12/06 09:18:19;;;;;;;6.75;3.72;;;;;;;12.45;23.25;101481.19;4783853;29;20055;-83
2022/12/06 09:20:45;;;;;;;6.40;4.10;;;;;;;12.74;22.98;101452.75;4756912;30;20134;-83
2022/12/06 09:23:12;;;;;;;6.28;3.90;;;;;;;12.09;23.42;101422.50;4743484;30;20058;-81
2022/12/06 09:26:36;;;;;;;5.63;4.05;;;;;;;13.65;22.39;101477.75;4744916;30;20058;-83
2022/12/06 09:32:56;;;;;;;5.38;3.78;;;;;;;11.35;22.21;101427.66;4737688;30;20044;-82
2022/12/06 09:35:25;;;;;;;4.93;3.50;;;;;;;9.68;22.66;101324.28;4738265;30;20813;-80
2022/12/06 09:37:51;;;;;;;8.88;4.05;;;;;;;10.19;23.22;101370.28;4738507;30;20129;-82
2022/12/06 09:40:33;;;;;;;5.43;3.70;;;;;;;10.63;22.36;101413.56;4719627;30;20048;-84
2022/12/06 09:43:11;;;;;;;7.07;4.13;;;;;;;10.97;22.76;101421.03;4758025;30;20036;-82
2022/12/06 09:45:53;;;;;;;5.43;3.63;;;;;;;11.96;22.26;101489.28;4772608;30;20560;-83
2022/12/06 09:48:37;;;;;;;5.28;3.63;;;;;;;11.01;21.99;101425.44;4755781;30;20602;-86
2022/12/06 09:51:44;;;;;;;6.90;3.50;;;;;;;10.04;21.18;101484.47;4771744;30;20047;-82
2022/12/06 09:54:37;;;;;;;10.35;3.63;;;;;;;9.51;22.71;101472.94;4746572;30;20070;-84
2022/12/06 09:57:20;;;;;;;6.05;3.72;;;;;;;9.81;22.65;101471.88;4746863;30;20533;-84
2022/12/06 10:00:02;;;;;;;5.78;3.97;;;;;;;8.66;22.35;101482.19;4760712;30;20395;-83
2022/12/06 10:02:56;;;;;;;8.73;4.43;;;;;;;6.91;23.53;101488.31;4760767;30;20115;-83
2022/12/06 10:05:54;;;;;;;8.13;3.95;;;;;;;5.45;24.26;101450.31;4750722;30;20193;-84
2022/12/06 10:08:49;;;;;;;7.68;3.53;;;;;;;3.43;24.72;101292.56;4756925;30;20497;-83
2022/12/06 10:11:36;;;;;;;9.23;3.83;;;;;;;3.74;25.23;101495.66;4775592;30;20517;-84
2022/12/06 10:14:30;;;;;;;6.70;4.05;;;;;;;1.98;26.22;101320.94;4768772;30;20110;-82
2022/12/06 10:17:17;;;;;;;8.50;3.67;;;;;;;2.24;26.51;101484.06;4790222;30;20053;-83
2022/12/06 10:20:15;;;;;;;7.35;3.33;;;;;;;1.36;27.17;101489.66;4796384;30;20063;-86
2022/12/06 10:22:50;;;;;;;7.28;3.45;;;;;;;0.83;28.39;101479.00;4779772;30;20039;-86
2022/12/06 10:25:44;;;;;;;9.30;4.15;;;;;;;0.19;28.47;101500.03;4761462;30;20085;-84
2022/12/06 10:28:32;;;;;;;5.63;3.60;;;;;;;-1.28;29.35;101317.06;4756186;30;20047;-84
2022/12/06 10:31:22;;;;;;;8.88;3.25;;;;;;;-2.37;30.03;101196.97;4763140;30;20077;-87
2022/12/06 10:33:59;;;;;;;7.45;3.17;;;;;;;-2.36;30.22;101239.56;4775591;29;20103;-87
2022/12/06 10:36:32;;;;;;;11.20;3.70;;;;;;;-2.63;30.58;101206.31;4758445;30;20044;-84
2022/12/06 10:39:19;;;;;;;5.57;2.80;;;;;;;-2.44;30.29;101250.09;4777900;30;20540;-84
2022/12/06 10:42:10;;;;;;;11.13;3.30;;;;;;;-2.16;30.94;101284.22;4769627;30;20039;-84
2022/12/06 10:45:01;;;;;;;6.47;2.88;;;;;;;-1.03;30.97;101506.09;4768520;30;20559;-87
2022/12/06 10:47:50;;;;;;;4.72;2.72;;;;;;;-2.42;30.92;101325.03;4779547;30;20043;-82
2022/12/06 10:50:24;;;;;;;14.27;3.35;;;;;;;-1.78;31.59;101438.09;4769562;30;20063;-83
2022/12/06 10:53:05;;;;;;;8.15;3.17;;;;;;;-1.92;31.85;101440.63;4745633;30;20193;-85
2022/12/06 10:55:59;;;;;;;;;;;;;;;-1.85;32.36;101487.88;4761116;30;20070;-86
2022/12/06 10:59:36;;;;;;;9.07;3.20;;;;;;;-3.20;32.76;101297.59;4744191;30;19928;-87
2022/12/06 11:02:36;;;;;;;5.70;2.67;;;;;;;-2.55;32.33;101436.28;4723209;30;20040;-87
2022/12/06 11:05:37;;;;;;;4.28;2.88;;;;;;;-3.69;33.11;101300.91;4741605;30;20110;-86
2022/12/06 11:08:17;;;;;;;5.13;2.80;;;;;;;-2.65;33.32;101504.47;4739540;30;20126;-84
2022/12/06 11:10:52;;;;;;;6.88;2.40;;;;;;;-4.74;33.67;101177.16;4773304;30;20116;-86
2022/12/06 11:13:36;;;;;;;5.28;2.90;;;;;;;-4.48;33.66;101238.31;4745701;30;20067;-86
2022/12/06 11:16:21;;;;;;;4.82;2.50;;;;;;;-3.09;34.24;101464.78;4757992;30;20054;-84
2022/12/06 11:18:48;;;;;;;6.00;2.60;;;;;;;-3.11;34.40;101479.06;4760312;30;20036;-85
2022/12/06 11:21:27;;;;;;;4.15;2.38;;;;;;;-3.81;35.04;101358.53;4768296;30;20051;-85
2022/12/06 11:24:33;;;;;;;5.13;2.28;;;;;;;-3.10;35.26;101462.13;4750535;30;20051;-85
2022/12/06 11:27:24;;;;;;;5.15;2.30;;;;;;;-3.14;34.92;101506.84;4744340;30;20040;-85
2022/12/06 11:29:58;;;;;;;6.35;2.83;;;;;;;-4.55;35.27;101255.66;4730603;30;20043;-86
2022/12/06 11:32:27;;;;;;;6.40;2.45;;;;;;;-3.45;36.39;101473.13;4764197;30;20039;-87
2022/12/06 11:34:59;;;;;;;6.90;2.65;;;;;;;-4.54;36.36;101304.81;4765117;30;20520;-87
2022/12/06 11:37:29;;;;;;;9.05;2.92;;;;;;;-4.39;36.67;101348.31;4762179;30;20069;-85
2022/12/06 11:40:17;;;;;;;10.68;2.85;;;;;;;-3.76;37.40;101486.97;4746226;30;20052;-85
2022/12/06 11:42:44;;;;;;;4.80;2.33;;;;;;;-3.78;37.88;101501.25;4758899;30;20047;-85
2022/12/06 11:46:08;;;;;;;;;;;;;;;;;;;;;
2022/12/06 11:49:44;;;;;;;7.35;2.83;;;;;;;-3.85;37.85;101465.91;4769102;30;20221;-85
2022/12/06 11:52:42;;;;;;;5.18;2.38;;;;;;;-3.95;38.18;101462.69;4760257;30;20183;-86
2022/12/06 11:55:41;;;;;;;6.80;2.83;;;;;;;-5.20;38.52;101271.03;4765321;30;20531;-90
2022/12/06 11:58:45;;;;;;;5.43;2.70;;;;;;;-4.07;38.90;101459.19;4771976;30;20096;-86
2022/12/06 12:01:39;;;;;;;4.47;2.42;;;;;;;-6.21;39.30;101089.84;4755002;30;20056;-85
2022/12/06 12:04:52;;;;;;;6.28;2.20;;;;;;;-4.28;39.14;101461.84;4762021;30;20055;-85
2022/12/06 12:07:41;;;;;;;5.45;2.67;;;;;;;-4.41;39.54;101451.50;4742847;30;20078;-89
2022/12/06 12:13:50;;;;;;;4.47;1.80;;;;;;;-6.16;40.63;101186.50;4759761;30;20162;-86
2022/12/06 12:16:25;;;;;;;8.18;2.60;;;;;;;-5.16;40.75;101330.53;4759810;30;20048;-84
2022/12/06 12:19:01;;;;;;;7.93;2.60;;;;;;;-5.46;40.88;101274.94;4744723;30;20099;-84
2022/12/06 12:21:48;;;;;;;5.75;2.60;;;;;;;-4.36;41.42;101470.56;4789582;29;20121;-88
2022/12/06 12:24:52;;;;;;;7.47;3.17;;;;;;;-4.33;41.47;101455.53;4743583;30;20080;-88
2022/12/06 12:27:33;;;;;;;5.85;2.75;;;;;;;-4.35;41.24;101452.00;4748502;30;20423;-87
2022/12/06 12:30:30;;;;;;;7.47;2.70;;;;;;;-6.33;41.26;101121.84;4782192;30;20488;-85
2022/12/06 12:33:17;;;;;;;5.10;2.55;;;;;;;-6.41;41.40;101149.97;4793274;29;20056;-87
2022/12/06 12:36:01;;;;;;;6.10;2.50;;;;;;;-5.38;42.45;101344.06;4786989;29;20121;-87
2022/12/06 12:38:37;;;;;;;4.88;2.50;;;;;;;-5.92;42.62;101234.09;4745292;30;20047;-88
2022/12/06 12:41:26;;;;;;;4.55;2.28;;;;;;;-5.48;42.00;101286.63;4771863;30;20043;-85
2022/12/06 12:44:01;;;;;;;4.95;2.65;;;;;;;-5.23;42.11;101351.13;4771571;30;20406;-87
2022/12/06 12:46:29;;;;;;;5.75;2.60;;;;;;;-6.44;42.22;101157.31;4788684;30;20052;-86
2022/12/06 12:49:25;;;;;;;5.15;2.45;;;;;;;-5.85;42.68;101240.56;4773475;30;20047;-87
2022/12/06 12:51:55;;;;;;;5.53;2.50;;;;;;;-6.73;43.14;101109.34;4778239;30;20047;-87
2022/12/06 12:54:36;;;;;;;6.18;2.22;;;;;;;-5.80;42.64;101264.63;4760573;30;20059;-86